sensor_id;sensor_type;location;lat;lon;timestamp;P1;durP1;ratioP1;P2;durP2;ratioP2
54919;SDS011;63804;53.120;8.764;2023-07-28T00:01:19;3.65;;;2.00;;
54919;SDS011;63804;53.120;8.764;2023-07-28T00:03:46;6.95;;;2.38;;
54919;SDS011;63804;53.120;8.764;2023-07-28T00:06:14;5.20;;;2.40;;
54919;SDS011;63804;53.120;8.764;2023-07-28T00:08:41;4.95;;;2.90;;
54919;SDS011;63804;53.120;8.764;2023-07-28T00:11:11;4.93;;;2.67;;
54919;SDS011;63804;53.120;8.764;2023-07-28T00:13:40;4.55;;;2.83;;
54919;SDS011;63804;53.120;8.764;2023-07-28T00:16:09;6.47;;;2.75;;
54919;SDS011;63804;53.120;8.764;2023-07-28T00:18:37;5.15;;;2.50;;
54919;SDS011;63804;53.120;8.764;2023-07-28T00:21:04;3.67;;;2.30;;
54919;SDS011;63804;53.120;8.764;2023-07-28T00:23:33;5.15;;;2.67;;
54919;SDS011;63804;53.120;8.764;2023-07-28T00:26:00;7.57;;;3.03;;
54919;SDS011;63804;53.120;8.764;2023-07-28T00:28:28;5.22;;;2.75;;
54919;SDS011;63804;53.120;8.764;2023-07-28T00:30:55;7.45;;;2.75;;
54919;SDS011;63804;53.120;8.764;2023-07-28T00:33:22;5.65;;;2.83;;
54919;SDS011;63804;53.120;8.764;2023-07-28T00:35:50;4.65;;;2.63;;
54919;SDS011;63804;53.120;8.764;2023-07-28T00:38:17;5.93;;;2.70;;
54919;SDS011;63804;53.120;8.764;2023-07-28T00:40:45;4.70;;;2.53;;
54919;SDS011;63804;53.120;8.764;2023-07-28T00:43:12;6.85;;;2.80;;
54919;SDS011;63804;53.120;8.764;2023-07-28T00:45:39;4.57;;;2.58;;
54919;SDS011;63804;53.120;8.764;2023-07-28T00:48:10;7.22;;;2.90;;
54919;SDS011;63804;53.120;8.764;2023-07-28T00:50:42;6.32;;;3.63;;
54919;SDS011;63804;53.120;8.764;2023-07-28T00:53:12;6.72;;;3.20;;
54919;SDS011;63804;53.120;8.764;2023-07-28T00:55:39;6.47;;;3.50;;
54919;SDS011;63804;53.120;8.764;2023-07-28T00:58:10;9.60;;;4.25;;
54919;SDS011;63804;53.120;8.764;2023-07-28T01:00:37;9.73;;;4.63;;
54919;SDS011;63804;53.120;8.764;2023-07-28T01:03:05;8.52;;;3.65;;
54919;SDS011;63804;53.120;8.764;2023-07-28T01:08:12;5.13;;;2.35;;
54919;SDS011;63804;53.120;8.764;2023-07-28T01:10:46;5.55;;;2.63;;
54919;SDS011;63804;53.120;8.764;2023-07-28T01:13:14;4.95;;;2.53;;
54919;SDS011;63804;53.120;8.764;2023-07-28T01:15:41;3.80;;;2.80;;
54919;SDS011;63804;53.120;8.764;2023-07-28T01:18:09;6.88;;;2.75;;
54919;SDS011;63804;53.120;8.764;2023-07-28T01:20:36;5.97;;;2.80;;
54919;SDS011;63804;53.120;8.764;2023-07-28T01:23:07;5.05;;;2.90;;
54919;SDS011;63804;53.120;8.764;2023-07-28T01:28:55;7.00;;;3.28;;
54919;SDS011;63804;53.120;8.764;2023-07-28T01:31:23;6.45;;;3.50;;
54919;SDS011;63804;53.120;8.764;2023-07-28T01:33:51;6.20;;;4.15;;
54919;SDS011;63804;53.120;8.764;2023-07-28T01:36:18;6.95;;;4.05;;
54919;SDS011;63804;53.120;8.764;2023-07-28T01:38:46;10.40;;;4.65;;
54919;SDS011;63804;53.120;8.764;2023-07-28T01:41:13;8.23;;;4.35;;
54919;SDS011;63804;53.120;8.764;2023-07-28T01:43:40;7.95;;;4.55;;
54919;SDS011;63804;53.120;8.764;2023-07-28T01:46:08;10.63;;;5.22;;
54919;SDS011;63804;53.120;8.764;2023-07-28T01:48:36;10.73;;;5.82;;
54919;SDS011;63804;53.120;8.764;2023-07-28T01:51:04;9.48;;;5.22;;
54919;SDS011;63804;53.120;8.764;2023-07-28T01:53:34;9.23;;;5.28;;
54919;SDS011;63804;53.120;8.764;2023-07-28T01:56:01;6.68;;;4.20;;
54919;SDS011;63804;53.120;8.764;2023-07-28T01:58:29;11.25;;;5.15;;
54919;SDS011;63804;53.120;8.764;2023-07-28T02:00:56;8.60;;;4.65;;
54919;SDS011;63804;53.120;8.764;2023-07-28T02:03:23;9.15;;;5.00;;
54919;SDS011;63804;53.120;8.764;2023-07-28T02:05:51;8.23;;;4.93;;
54919;SDS011;63804;53.120;8.764;2023-07-28T02:08:19;9.45;;;5.40;;
54919;SDS011;63804;53.120;8.764;2023-07-28T02:10:47;9.82;;;5.53;;
54919;SDS011;63804;53.120;8.764;2023-07-28T02:13:14;9.02;;;5.20;;
54919;SDS011;63804;53.120;8.764;2023-07-28T02:15:41;9.48;;;4.82;;
54919;SDS011;63804;53.120;8.764;2023-07-28T02:18:09;7.40;;;4.43;;
54919;SDS011;63804;53.120;8.764;2023-07-28T02:20:36;9.48;;;4.63;;
54919;SDS011;63804;53.120;8.764;2023-07-28T02:23:04;7.22;;;4.55;;
54919;SDS011;63804;53.120;8.764;2023-07-28T02:25:32;7.25;;;4.20;;
54919;SDS011;63804;53.120;8.764;2023-07-28T02:27:59;8.73;;;4.75;;
54919;SDS011;63804;53.120;8.764;2023-07-28T02:30:26;8.65;;;5.18;;
54919;SDS011;63804;53.120;8.764;2023-07-28T02:32:53;11.07;;;6.63;;
54919;SDS011;63804;53.120;8.764;2023-07-28T02:35:21;12.05;;;7.30;;
54919;SDS011;63804;53.120;8.764;2023-07-28T02:37:48;11.25;;;6.65;;
54919;SDS011;63804;53.120;8.764;2023-07-28T02:40:16;13.43;;;8.38;;
54919;SDS011;63804;53.120;8.764;2023-07-28T02:42:43;14.13;;;8.02;;
54919;SDS011;63804;53.120;8.764;2023-07-28T02:45:11;14.70;;;8.63;;
54919;SDS011;63804;53.120;8.764;2023-07-28T02:47:38;13.57;;;8.10;;
54919;SDS011;63804;53.120;8.764;2023-07-28T02:50:05;14.00;;;7.38;;
54919;SDS011;63804;53.120;8.764;2023-07-28T02:52:33;13.35;;;7.85;;
54919;SDS011;63804;53.120;8.764;2023-07-28T02:55:00;12.85;;;7.38;;
54919;SDS011;63804;53.120;8.764;2023-07-28T02:57:28;10.60;;;6.90;;
54919;SDS011;63804;53.120;8.764;2023-07-28T02:59:55;12.25;;;7.00;;
54919;SDS011;63804;53.120;8.764;2023-07-28T03:02:23;14.02;;;7.13;;
54919;SDS011;63804;53.120;8.764;2023-07-28T03:04:50;11.35;;;7.30;;
54919;SDS011;63804;53.120;8.764;2023-07-28T03:07:17;10.07;;;5.55;;
54919;SDS011;63804;53.120;8.764;2023-07-28T03:09:45;11.60;;;6.38;;
54919;SDS011;63804;53.120;8.764;2023-07-28T03:12:12;11.25;;;6.45;;
54919;SDS011;63804;53.120;8.764;2023-07-28T03:14:39;10.43;;;6.68;;
54919;SDS011;63804;53.120;8.764;2023-07-28T03:17:07;12.52;;;8.05;;
54919;SDS011;63804;53.120;8.764;2023-07-28T03:19:34;11.80;;;7.80;;
54919;SDS011;63804;53.120;8.764;2023-07-28T03:22:01;12.20;;;7.75;;
54919;SDS011;63804;53.120;8.764;2023-07-28T03:24:29;11.68;;;7.03;;
54919;SDS011;63804;53.120;8.764;2023-07-28T03:26:56;10.32;;;6.55;;
54919;SDS011;63804;53.120;8.764;2023-07-28T03:29:23;10.07;;;6.28;;
54919;SDS011;63804;53.120;8.764;2023-07-28T03:31:50;11.90;;;6.18;;
54919;SDS011;63804;53.120;8.764;2023-07-28T03:34:18;10.07;;;6.30;;
54919;SDS011;63804;53.120;8.764;2023-07-28T03:36:45;11.07;;;6.80;;
54919;SDS011;63804;53.120;8.764;2023-07-28T03:39:12;9.95;;;5.80;;
54919;SDS011;63804;53.120;8.764;2023-07-28T03:41:40;12.10;;;6.47;;
54919;SDS011;63804;53.120;8.764;2023-07-28T03:44:07;10.95;;;6.53;;
54919;SDS011;63804;53.120;8.764;2023-07-28T03:46:34;10.43;;;6.25;;
54919;SDS011;63804;53.120;8.764;2023-07-28T03:49:02;9.52;;;5.28;;
54919;SDS011;63804;53.120;8.764;2023-07-28T03:51:29;9.38;;;4.60;;
54919;SDS011;63804;53.120;8.764;2023-07-28T03:53:56;8.82;;;4.07;;
54919;SDS011;63804;53.120;8.764;2023-07-28T03:56:24;6.60;;;3.22;;
54919;SDS011;63804;53.120;8.764;2023-07-28T03:58:51;7.05;;;3.05;;
54919;SDS011;63804;53.120;8.764;2023-07-28T04:01:20;5.13;;;3.00;;
54919;SDS011;63804;53.120;8.764;2023-07-28T04:03:48;6.20;;;3.00;;
54919;SDS011;63804;53.120;8.764;2023-07-28T04:06:16;4.13;;;2.60;;
54919;SDS011;63804;53.120;8.764;2023-07-28T04:08:43;4.38;;;2.45;;
54919;SDS011;63804;53.120;8.764;2023-07-28T04:11:11;7.35;;;2.78;;
54919;SDS011;63804;53.120;8.764;2023-07-28T04:13:38;6.40;;;3.60;;
54919;SDS011;63804;53.120;8.764;2023-07-28T04:16:05;5.63;;;3.47;;
54919;SDS011;63804;53.120;8.764;2023-07-28T04:18:33;6.10;;;3.70;;
54919;SDS011;63804;53.120;8.764;2023-07-28T04:21:00;6.45;;;3.00;;
54919;SDS011;63804;53.120;8.764;2023-07-28T04:23:27;6.22;;;3.80;;
54919;SDS011;63804;53.120;8.764;2023-07-28T04:25:55;7.30;;;4.22;;
54919;SDS011;63804;53.120;8.764;2023-07-28T04:28:22;6.78;;;4.20;;
54919;SDS011;63804;53.120;8.764;2023-07-28T04:30:51;7.97;;;4.95;;
54919;SDS011;63804;53.120;8.764;2023-07-28T04:33:19;9.00;;;4.90;;
54919;SDS011;63804;53.120;8.764;2023-07-28T04:35:46;9.32;;;5.70;;
54919;SDS011;63804;53.120;8.764;2023-07-28T04:38:13;11.80;;;6.57;;
54919;SDS011;63804;53.120;8.764;2023-07-28T04:40:40;13.68;;;6.45;;
54919;SDS011;63804;53.120;8.764;2023-07-28T04:43:08;13.30;;;6.93;;
54919;SDS011;63804;53.120;8.764;2023-07-28T04:45:35;12.57;;;6.78;;
54919;SDS011;63804;53.120;8.764;2023-07-28T04:48:03;11.10;;;6.43;;
54919;SDS011;63804;53.120;8.764;2023-07-28T04:50:30;9.52;;;5.35;;
54919;SDS011;63804;53.120;8.764;2023-07-28T04:53:00;9.52;;;5.28;;
54919;SDS011;63804;53.120;8.764;2023-07-28T04:55:27;8.63;;;5.13;;
54919;SDS011;63804;53.120;8.764;2023-07-28T04:57:55;10.52;;;5.60;;
54919;SDS011;63804;53.120;8.764;2023-07-28T05:00:22;9.23;;;5.35;;
54919;SDS011;63804;53.120;8.764;2023-07-28T05:02:50;7.97;;;4.40;;
54919;SDS011;63804;53.120;8.764;2023-07-28T05:05:17;8.27;;;4.70;;
54919;SDS011;63804;53.120;8.764;2023-07-28T05:07:44;6.53;;;4.38;;
54919;SDS011;63804;53.120;8.764;2023-07-28T05:10:12;7.43;;;3.92;;
54919;SDS011;63804;53.120;8.764;2023-07-28T05:12:39;6.38;;;3.65;;
54919;SDS011;63804;53.120;8.764;2023-07-28T05:15:06;6.45;;;3.85;;
54919;SDS011;63804;53.120;8.764;2023-07-28T05:17:37;5.68;;;3.60;;
54919;SDS011;63804;53.120;8.764;2023-07-28T05:20:04;5.35;;;3.53;;
54919;SDS011;63804;53.120;8.764;2023-07-28T05:22:32;5.65;;;3.00;;
54919;SDS011;63804;53.120;8.764;2023-07-28T05:25:00;5.50;;;3.20;;
54919;SDS011;63804;53.120;8.764;2023-07-28T05:27:27;5.85;;;3.15;;
54919;SDS011;63804;53.120;8.764;2023-07-28T05:29:54;5.40;;;3.50;;
54919;SDS011;63804;53.120;8.764;2023-07-28T05:32:22;5.70;;;3.60;;
54919;SDS011;63804;53.120;8.764;2023-07-28T05:34:49;6.20;;;3.50;;
54919;SDS011;63804;53.120;8.764;2023-07-28T05:37:17;5.13;;;3.38;;
54919;SDS011;63804;53.120;8.764;2023-07-28T05:39:44;6.35;;;3.55;;
54919;SDS011;63804;53.120;8.764;2023-07-28T05:42:11;5.22;;;3.28;;
54919;SDS011;63804;53.120;8.764;2023-07-28T05:44:39;5.97;;;3.60;;
54919;SDS011;63804;53.120;8.764;2023-07-28T05:47:06;6.90;;;3.80;;
54919;SDS011;63804;53.120;8.764;2023-07-28T05:49:34;6.07;;;3.67;;
54919;SDS011;63804;53.120;8.764;2023-07-28T05:52:01;7.22;;;4.03;;
54919;SDS011;63804;53.120;8.764;2023-07-28T05:54:28;7.50;;;4.18;;
54919;SDS011;63804;53.120;8.764;2023-07-28T05:56:56;6.47;;;4.10;;
54919;SDS011;63804;53.120;8.764;2023-07-28T05:59:23;7.55;;;4.40;;
54919;SDS011;63804;53.120;8.764;2023-07-28T06:01:50;9.80;;;4.80;;
54919;SDS011;63804;53.120;8.764;2023-07-28T06:04:18;8.48;;;4.10;;
54919;SDS011;63804;53.120;8.764;2023-07-28T06:06:45;7.70;;;4.10;;
54919;SDS011;63804;53.120;8.764;2023-07-28T06:09:14;7.97;;;4.22;;
54919;SDS011;63804;53.120;8.764;2023-07-28T06:11:41;7.18;;;4.60;;
54919;SDS011;63804;53.120;8.764;2023-07-28T06:14:08;9.23;;;4.53;;
54919;SDS011;63804;53.120;8.764;2023-07-28T06:16:36;9.45;;;4.63;;
54919;SDS011;63804;53.120;8.764;2023-07-28T06:19:03;7.00;;;4.38;;
54919;SDS011;63804;53.120;8.764;2023-07-28T06:21:31;8.02;;;4.90;;
54919;SDS011;63804;53.120;8.764;2023-07-28T06:23:59;7.93;;;5.00;;
54919;SDS011;63804;53.120;8.764;2023-07-28T06:26:26;12.20;;;6.45;;
54919;SDS011;63804;53.120;8.764;2023-07-28T06:28:53;11.10;;;6.00;;
54919;SDS011;63804;53.120;8.764;2023-07-28T06:31:20;12.48;;;7.30;;
54919;SDS011;63804;53.120;8.764;2023-07-28T06:33:48;13.35;;;8.80;;
54919;SDS011;63804;53.120;8.764;2023-07-28T06:36:15;14.75;;;9.88;;
54919;SDS011;63804;53.120;8.764;2023-07-28T06:38:43;14.95;;;9.80;;
54919;SDS011;63804;53.120;8.764;2023-07-28T06:41:12;17.00;;;10.60;;
54919;SDS011;63804;53.120;8.764;2023-07-28T06:43:40;17.25;;;9.90;;
54919;SDS011;63804;53.120;8.764;2023-07-28T06:46:08;15.13;;;9.90;;
54919;SDS011;63804;53.120;8.764;2023-07-28T06:48:35;19.27;;;10.85;;
54919;SDS011;63804;53.120;8.764;2023-07-28T06:51:03;18.52;;;10.27;;
54919;SDS011;63804;53.120;8.764;2023-07-28T06:53:30;15.68;;;10.50;;
54919;SDS011;63804;53.120;8.764;2023-07-28T06:55:57;15.10;;;9.75;;
54919;SDS011;63804;53.120;8.764;2023-07-28T06:58:24;18.02;;;10.85;;
54919;SDS011;63804;53.120;8.764;2023-07-28T07:00:52;15.88;;;10.10;;
54919;SDS011;63804;53.120;8.764;2023-07-28T07:03:20;16.25;;;10.02;;
54919;SDS011;63804;53.120;8.764;2023-07-28T07:05:47;17.58;;;10.43;;
54919;SDS011;63804;53.120;8.764;2023-07-28T07:08:15;17.17;;;10.60;;
54919;SDS011;63804;53.120;8.764;2023-07-28T07:10:49;18.00;;;10.70;;
54919;SDS011;63804;53.120;8.764;2023-07-28T07:13:17;16.23;;;10.25;;
54919;SDS011;63804;53.120;8.764;2023-07-28T07:15:45;15.43;;;10.40;;
54919;SDS011;63804;53.120;8.764;2023-07-28T07:18:12;17.00;;;10.68;;
54919;SDS011;63804;53.120;8.764;2023-07-28T07:20:40;16.95;;;11.15;;
54919;SDS011;63804;53.120;8.764;2023-07-28T07:23:07;18.40;;;10.82;;
54919;SDS011;63804;53.120;8.764;2023-07-28T07:25:34;18.60;;;11.32;;
54919;SDS011;63804;53.120;8.764;2023-07-28T07:28:02;18.70;;;11.02;;
54919;SDS011;63804;53.120;8.764;2023-07-28T07:30:31;16.73;;;10.50;;
54919;SDS011;63804;53.120;8.764;2023-07-28T07:33:00;20.02;;;11.52;;
54919;SDS011;63804;53.120;8.764;2023-07-28T07:35:28;17.40;;;11.88;;
54919;SDS011;63804;53.120;8.764;2023-07-28T07:37:55;17.40;;;11.35;;
54919;SDS011;63804;53.120;8.764;2023-07-28T07:40:22;18.10;;;11.77;;
54919;SDS011;63804;53.120;8.764;2023-07-28T07:42:54;19.85;;;12.35;;
54919;SDS011;63804;53.120;8.764;2023-07-28T07:45:22;19.98;;;12.00;;
54919;SDS011;63804;53.120;8.764;2023-07-28T07:47:49;20.25;;;12.73;;
54919;SDS011;63804;53.120;8.764;2023-07-28T07:50:17;22.27;;;12.95;;
54919;SDS011;63804;53.120;8.764;2023-07-28T07:52:44;23.55;;;13.32;;
54919;SDS011;63804;53.120;8.764;2023-07-28T07:55:12;19.10;;;12.98;;
54919;SDS011;63804;53.120;8.764;2023-07-28T07:57:39;20.98;;;12.40;;
54919;SDS011;63804;53.120;8.764;2023-07-28T08:00:07;19.33;;;13.15;;
54919;SDS011;63804;53.120;8.764;2023-07-28T08:02:35;21.27;;;13.55;;
54919;SDS011;63804;53.120;8.764;2023-07-28T08:05:03;20.50;;;13.32;;
54919;SDS011;63804;53.120;8.764;2023-07-28T08:07:30;21.30;;;13.32;;
54919;SDS011;63804;53.120;8.764;2023-07-28T08:09:58;18.38;;;12.38;;
54919;SDS011;63804;53.120;8.764;2023-07-28T08:12:25;19.95;;;12.38;;
54919;SDS011;63804;53.120;8.764;2023-07-28T08:14:53;20.73;;;11.55;;
54919;SDS011;63804;53.120;8.764;2023-07-28T08:17:23;18.92;;;12.48;;
54919;SDS011;63804;53.120;8.764;2023-07-28T08:19:50;17.58;;;11.98;;
54919;SDS011;63804;53.120;8.764;2023-07-28T08:22:18;19.75;;;11.88;;
54919;SDS011;63804;53.120;8.764;2023-07-28T08:24:45;18.48;;;11.73;;
54919;SDS011;63804;53.120;8.764;2023-07-28T08:27:13;18.23;;;11.07;;
54919;SDS011;63804;53.120;8.764;2023-07-28T08:29:40;18.63;;;11.55;;
54919;SDS011;63804;53.120;8.764;2023-07-28T08:32:07;21.02;;;12.13;;
54919;SDS011;63804;53.120;8.764;2023-07-28T08:34:35;16.17;;;10.35;;
54919;SDS011;63804;53.120;8.764;2023-07-28T08:37:02;17.38;;;11.23;;
54919;SDS011;63804;53.120;8.764;2023-07-28T08:39:29;19.83;;;10.45;;
54919;SDS011;63804;53.120;8.764;2023-07-28T08:41:57;18.35;;;11.10;;
54919;SDS011;63804;53.120;8.764;2023-07-28T08:44:32;21.67;;;11.07;;
54919;SDS011;63804;53.120;8.764;2023-07-28T08:47:01;17.58;;;10.65;;
54919;SDS011;63804;53.120;8.764;2023-07-28T08:49:31;17.45;;;12.27;;
54919;SDS011;63804;53.120;8.764;2023-07-28T08:52:05;17.10;;;10.93;;
54919;SDS011;63804;53.120;8.764;2023-07-28T08:54:33;15.57;;;11.15;;
54919;SDS011;63804;53.120;8.764;2023-07-28T08:57:00;17.00;;;11.52;;
54919;SDS011;63804;53.120;8.764;2023-07-28T08:59:28;15.27;;;10.40;;
54919;SDS011;63804;53.120;8.764;2023-07-28T09:01:57;18.48;;;11.52;;
54919;SDS011;63804;53.120;8.764;2023-07-28T09:04:26;17.67;;;11.27;;
54919;SDS011;63804;53.120;8.764;2023-07-28T09:06:54;15.77;;;9.93;;
54919;SDS011;63804;53.120;8.764;2023-07-28T09:09:22;14.70;;;10.20;;
54919;SDS011;63804;53.120;8.764;2023-07-28T09:11:51;16.50;;;10.50;;
54919;SDS011;63804;53.120;8.764;2023-07-28T09:14:21;15.75;;;10.82;;
54919;SDS011;63804;53.120;8.764;2023-07-28T09:16:52;16.90;;;11.02;;
54919;SDS011;63804;53.120;8.764;2023-07-28T09:19:20;17.20;;;10.93;;
54919;SDS011;63804;53.120;8.764;2023-07-28T09:21:58;13.00;;;9.07;;
54919;SDS011;63804;53.120;8.764;2023-07-28T09:24:33;18.15;;;10.43;;
54919;SDS011;63804;53.120;8.764;2023-07-28T09:27:01;15.98;;;9.77;;
54919;SDS011;63804;53.120;8.764;2023-07-28T09:29:29;17.52;;;11.90;;
54919;SDS011;63804;53.120;8.764;2023-07-28T09:32:03;16.52;;;11.30;;
54919;SDS011;63804;53.120;8.764;2023-07-28T09:34:32;17.23;;;10.52;;
54919;SDS011;63804;53.120;8.764;2023-07-28T09:37:00;16.83;;;10.20;;
54919;SDS011;63804;53.120;8.764;2023-07-28T09:39:28;14.20;;;9.70;;
54919;SDS011;63804;53.120;8.764;2023-07-28T09:41:55;17.83;;;9.45;;
54919;SDS011;63804;53.120;8.764;2023-07-28T09:44:25;16.33;;;10.45;;
54919;SDS011;63804;53.120;8.764;2023-07-28T09:46:53;15.98;;;9.60;;
54919;SDS011;63804;53.120;8.764;2023-07-28T09:51:53;12.45;;;8.80;;
54919;SDS011;63804;53.120;8.764;2023-07-28T09:54:25;15.10;;;8.60;;
54919;SDS011;63804;53.120;8.764;2023-07-28T09:56:57;12.70;;;7.07;;
54919;SDS011;63804;53.120;8.764;2023-07-28T09:59:40;12.70;;;6.60;;
54919;SDS011;63804;53.120;8.764;2023-07-28T10:02:09;10.48;;;5.65;;
54919;SDS011;63804;53.120;8.764;2023-07-28T10:04:37;11.10;;;6.00;;
54919;SDS011;63804;53.120;8.764;2023-07-28T10:07:05;10.50;;;5.45;;
54919;SDS011;63804;53.120;8.764;2023-07-28T10:09:34;12.40;;;5.75;;
54919;SDS011;63804;53.120;8.764;2023-07-28T10:12:04;10.52;;;5.65;;
54919;SDS011;63804;53.120;8.764;2023-07-28T10:14:34;12.38;;;5.55;;
54919;SDS011;63804;53.120;8.764;2023-07-28T10:17:05;11.25;;;5.57;;
54919;SDS011;63804;53.120;8.764;2023-07-28T10:19:35;13.10;;;6.28;;
54919;SDS011;63804;53.120;8.764;2023-07-28T10:22:07;13.32;;;5.60;;
54919;SDS011;63804;53.120;8.764;2023-07-28T10:24:55;7.30;;;3.30;;
54919;SDS011;63804;53.120;8.764;2023-07-28T10:30:09;5.97;;;2.45;;
54919;SDS011;63804;53.120;8.764;2023-07-28T10:32:40;5.35;;;2.63;;
54919;SDS011;63804;53.120;8.764;2023-07-28T10:37:43;10.80;;;4.90;;
54919;SDS011;63804;53.120;8.764;2023-07-28T10:40:28;13.57;;;6.55;;
54919;SDS011;63804;53.120;8.764;2023-07-28T10:43:02;15.10;;;7.57;;
54919;SDS011;63804;53.120;8.764;2023-07-28T10:45:32;16.98;;;8.05;;
54919;SDS011;63804;53.120;8.764;2023-07-28T10:47:59;13.55;;;8.05;;
54919;SDS011;63804;53.120;8.764;2023-07-28T10:50:28;11.40;;;6.40;;
54919;SDS011;63804;53.120;8.764;2023-07-28T10:52:57;12.07;;;6.15;;
54919;SDS011;63804;53.120;8.764;2023-07-28T10:55:26;15.65;;;5.93;;
54919;SDS011;63804;53.120;8.764;2023-07-28T10:57:54;11.30;;;5.10;;
54919;SDS011;63804;53.120;8.764;2023-07-28T11:00:22;8.32;;;3.90;;
54919;SDS011;63804;53.120;8.764;2023-07-28T11:05:25;9.63;;;4.00;;
54919;SDS011;63804;53.120;8.764;2023-07-28T11:07:54;8.05;;;3.20;;
54919;SDS011;63804;53.120;8.764;2023-07-28T11:10:24;5.45;;;2.75;;
54919;SDS011;63804;53.120;8.764;2023-07-28T11:12:52;8.25;;;3.33;;
54919;SDS011;63804;53.120;8.764;2023-07-28T11:15:20;5.43;;;2.83;;
54919;SDS011;63804;53.120;8.764;2023-07-28T11:17:50;5.55;;;2.88;;
54919;SDS011;63804;53.120;8.764;2023-07-28T11:23:02;8.23;;;3.72;;
54919;SDS011;63804;53.120;8.764;2023-07-28T11:25:32;12.65;;;4.32;;
54919;SDS011;63804;53.120;8.764;2023-07-28T11:28:03;14.48;;;4.88;;
54919;SDS011;63804;53.120;8.764;2023-07-28T11:30:35;17.65;;;4.63;;
54919;SDS011;63804;53.120;8.764;2023-07-28T11:33:08;9.60;;;3.35;;
54919;SDS011;63804;53.120;8.764;2023-07-28T11:35:38;7.80;;;3.10;;
54919;SDS011;63804;53.120;8.764;2023-07-28T11:38:07;5.65;;;2.42;;
54919;SDS011;63804;53.120;8.764;2023-07-28T11:40:35;6.20;;;2.60;;
54919;SDS011;63804;53.120;8.764;2023-07-28T11:43:03;7.38;;;2.17;;
54919;SDS011;63804;53.120;8.764;2023-07-28T11:45:31;4.00;;;2.35;;
54919;SDS011;63804;53.120;8.764;2023-07-28T11:48:00;4.28;;;2.20;;
54919;SDS011;63804;53.120;8.764;2023-07-28T11:50:37;8.05;;;2.35;;
54919;SDS011;63804;53.120;8.764;2023-07-28T11:53:09;4.10;;;1.90;;
54919;SDS011;63804;53.120;8.764;2023-07-28T11:55:37;3.75;;;2.08;;
54919;SDS011;63804;53.120;8.764;2023-07-28T11:58:05;3.42;;;2.03;;
54919;SDS011;63804;53.120;8.764;2023-07-28T12:00:34;5.68;;;2.28;;
54919;SDS011;63804;53.120;8.764;2023-07-28T12:03:07;5.60;;;2.30;;
54919;SDS011;63804;53.120;8.764;2023-07-28T12:05:41;4.32;;;2.50;;
54919;SDS011;63804;53.120;8.764;2023-07-28T12:08:45;3.47;;;2.35;;
54919;SDS011;63804;53.120;8.764;2023-07-28T12:11:13;3.95;;;2.33;;
54919;SDS011;63804;53.120;8.764;2023-07-28T12:13:50;5.93;;;2.92;;
54919;SDS011;63804;53.120;8.764;2023-07-28T12:16:39;3.28;;;2.67;;
54919;SDS011;63804;53.120;8.764;2023-07-28T12:19:14;3.63;;;2.45;;
54919;SDS011;63804;53.120;8.764;2023-07-28T12:21:41;3.33;;;2.30;;
54919;SDS011;63804;53.120;8.764;2023-07-28T12:24:09;5.60;;;2.60;;
54919;SDS011;63804;53.120;8.764;2023-07-28T12:26:36;5.20;;;2.70;;
54919;SDS011;63804;53.120;8.764;2023-07-28T12:29:06;4.72;;;2.55;;
54919;SDS011;63804;53.120;8.764;2023-07-28T12:31:37;4.15;;;2.50;;
54919;SDS011;63804;53.120;8.764;2023-07-28T12:34:08;4.55;;;2.33;;
54919;SDS011;63804;53.120;8.764;2023-07-28T12:36:36;6.93;;;2.50;;
54919;SDS011;63804;53.120;8.764;2023-07-28T12:39:06;3.55;;;2.60;;
54919;SDS011;63804;53.120;8.764;2023-07-28T12:41:37;4.63;;;2.28;;
54919;SDS011;63804;53.120;8.764;2023-07-28T12:44:10;3.28;;;2.42;;
54919;SDS011;63804;53.120;8.764;2023-07-28T12:46:42;3.58;;;2.10;;
54919;SDS011;63804;53.120;8.764;2023-07-28T12:49:10;6.55;;;2.80;;
54919;SDS011;63804;53.120;8.764;2023-07-28T12:51:47;3.70;;;2.30;;
54919;SDS011;63804;53.120;8.764;2023-07-28T12:54:17;3.58;;;2.25;;
54919;SDS011;63804;53.120;8.764;2023-07-28T12:56:46;3.67;;;2.20;;
54919;SDS011;63804;53.120;8.764;2023-07-28T12:59:14;5.20;;;2.55;;
54919;SDS011;63804;53.120;8.764;2023-07-28T13:01:44;5.22;;;2.28;;
54919;SDS011;63804;53.120;8.764;2023-07-28T13:04:12;4.45;;;2.40;;
54919;SDS011;63804;53.120;8.764;2023-07-28T13:06:40;4.35;;;1.98;;
54919;SDS011;63804;53.120;8.764;2023-07-28T13:09:08;4.55;;;2.17;;
54919;SDS011;63804;53.120;8.764;2023-07-28T13:11:41;2.13;;;1.92;;
54919;SDS011;63804;53.120;8.764;2023-07-28T13:14:11;3.08;;;1.95;;
54919;SDS011;63804;53.120;8.764;2023-07-28T13:16:38;3.38;;;1.83;;
54919;SDS011;63804;53.120;8.764;2023-07-28T13:19:06;3.13;;;1.90;;
54919;SDS011;63804;53.120;8.764;2023-07-28T13:21:33;5.93;;;2.17;;
54919;SDS011;63804;53.120;8.764;2023-07-28T13:24:01;3.25;;;2.00;;
54919;SDS011;63804;53.120;8.764;2023-07-28T13:26:28;5.65;;;2.22;;
54919;SDS011;63804;53.120;8.764;2023-07-28T13:28:55;4.68;;;2.05;;
54919;SDS011;63804;53.120;8.764;2023-07-28T13:31:25;4.10;;;2.08;;
54919;SDS011;63804;53.120;8.764;2023-07-28T13:33:52;2.88;;;2.00;;
54919;SDS011;63804;53.120;8.764;2023-07-28T13:36:22;4.57;;;2.08;;
54919;SDS011;63804;53.120;8.764;2023-07-28T13:38:49;3.38;;;2.10;;
54919;SDS011;63804;53.120;8.764;2023-07-28T13:41:17;4.32;;;1.88;;
54919;SDS011;63804;53.120;8.764;2023-07-28T13:43:44;3.10;;;2.20;;
54919;SDS011;63804;53.120;8.764;2023-07-28T13:46:11;3.10;;;1.85;;
54919;SDS011;63804;53.120;8.764;2023-07-28T13:48:39;4.57;;;1.83;;
54919;SDS011;63804;53.120;8.764;2023-07-28T13:51:19;5.13;;;2.20;;
54919;SDS011;63804;53.120;8.764;2023-07-28T13:53:56;3.88;;;2.22;;
54919;SDS011;63804;53.120;8.764;2023-07-28T13:56:26;3.22;;;2.00;;
54919;SDS011;63804;53.120;8.764;2023-07-28T13:58:55;3.40;;;2.00;;
54919;SDS011;63804;53.120;8.764;2023-07-28T14:01:22;2.92;;;2.10;;
54919;SDS011;63804;53.120;8.764;2023-07-28T14:03:49;2.88;;;1.85;;
54919;SDS011;63804;53.120;8.764;2023-07-28T14:06:17;3.03;;;1.85;;
54919;SDS011;63804;53.120;8.764;2023-07-28T14:08:44;3.78;;;2.10;;
54919;SDS011;63804;53.120;8.764;2023-07-28T14:11:11;5.47;;;2.00;;
54919;SDS011;63804;53.120;8.764;2023-07-28T14:13:39;3.30;;;2.05;;
54919;SDS011;63804;53.120;8.764;2023-07-28T14:16:06;2.05;;;1.60;;
54919;SDS011;63804;53.120;8.764;2023-07-28T14:18:36;3.75;;;1.45;;
54919;SDS011;63804;53.120;8.764;2023-07-28T14:21:03;3.58;;;1.83;;
54919;SDS011;63804;53.120;8.764;2023-07-28T14:23:31;3.45;;;2.00;;
54919;SDS011;63804;53.120;8.764;2023-07-28T14:25:58;2.85;;;2.00;;
54919;SDS011;63804;53.120;8.764;2023-07-28T14:28:26;3.30;;;1.88;;
54919;SDS011;63804;53.120;8.764;2023-07-28T14:30:53;3.63;;;1.80;;
54919;SDS011;63804;53.120;8.764;2023-07-28T14:33:20;3.50;;;2.00;;
54919;SDS011;63804;53.120;8.764;2023-07-28T14:35:48;4.97;;;2.08;;
54919;SDS011;63804;53.120;8.764;2023-07-28T14:38:16;3.08;;;1.90;;
54919;SDS011;63804;53.120;8.764;2023-07-28T14:40:44;2.95;;;1.80;;
54919;SDS011;63804;53.120;8.764;2023-07-28T14:43:16;2.55;;;1.70;;
54919;SDS011;63804;53.120;8.764;2023-07-28T14:45:43;4.35;;;2.05;;
54919;SDS011;63804;53.120;8.764;2023-07-28T14:48:11;4.70;;;2.10;;
54919;SDS011;63804;53.120;8.764;2023-07-28T14:50:38;3.65;;;1.75;;
54919;SDS011;63804;53.120;8.764;2023-07-28T14:53:27;5.03;;;2.17;;
54919;SDS011;63804;53.120;8.764;2023-07-28T14:56:00;4.80;;;2.10;;
54919;SDS011;63804;53.120;8.764;2023-07-28T14:58:29;4.20;;;2.05;;
54919;SDS011;63804;53.120;8.764;2023-07-28T15:00:57;3.22;;;2.00;;
54919;SDS011;63804;53.120;8.764;2023-07-28T15:03:28;4.15;;;2.00;;
54919;SDS011;63804;53.120;8.764;2023-07-28T15:05:59;3.72;;;1.98;;
54919;SDS011;63804;53.120;8.764;2023-07-28T15:08:27;4.85;;;2.05;;